sensor_id;sensor_type;location;lat;lon;timestamp;temperature;humidity
63771;DHT22;60282;43.862;18.430;2023-03-14T00:00:14;5.20;99.90
63771;DHT22;60282;43.862;18.430;2023-03-14T00:02:44;5.10;99.90
63771;DHT22;60282;43.862;18.430;2023-03-14T00:05:11;5.10;99.90
63771;DHT22;60282;43.862;18.430;2023-03-14T00:07:38;5.10;99.90
63771;DHT22;60282;43.862;18.430;2023-03-14T00:10:11;7.00;99.90
63771;DHT22;60282;43.862;18.430;2023-03-14T00:12:38;5.10;99.90
63771;DHT22;60282;43.862;18.430;2023-03-14T00:15:05;5.00;99.90
63771;DHT22;60282;43.862;18.430;2023-03-14T00:20:06;5.00;99.90
63771;DHT22;60282;43.862;18.430;2023-03-14T00:22:40;5.20;99.90
63771;DHT22;60282;43.862;18.430;2023-03-14T00:25:09;5.00;99.90
63771;DHT22;60282;43.862;18.430;2023-03-14T00:30:04;5.00;99.90
63771;DHT22;60282;43.862;18.430;2023-03-14T00:39:52;5.00;99.90
63771;DHT22;60282;43.862;18.430;2023-03-14T00:42:18;5.00;99.90
63771;DHT22;60282;43.862;18.430;2023-03-14T00:52:03;4.90;99.90
63771;DHT22;60282;43.862;18.430;2023-03-14T00:56:57;4.90;99.90
63771;DHT22;60282;43.862;18.430;2023-03-14T00:59:23;4.90;99.90
63771;DHT22;60282;43.862;18.430;2023-03-14T01:01:48;5.00;99.90
63771;DHT22;60282;43.862;18.430;2023-03-14T01:04:14;4.90;99.90
63771;DHT22;60282;43.862;18.430;2023-03-14T01:06:40;5.00;99.90
63771;DHT22;60282;43.862;18.430;2023-03-14T01:09:06;4.90;99.90
63771;DHT22;60282;43.862;18.430;2023-03-14T01:11:34;4.90;99.90
63771;DHT22;60282;43.862;18.430;2023-03-14T01:14:04;4.80;99.90
63771;DHT22;60282;43.862;18.430;2023-03-14T01:16:33;4.90;99.90
63771;DHT22;60282;43.862;18.430;2023-03-14T01:18:59;4.80;99.90
63771;DHT22;60282;43.862;18.430;2023-03-14T01:21:28;4.70;99.90
63771;DHT22;60282;43.862;18.430;2023-03-14T01:23:56;4.70;99.90
63771;DHT22;60282;43.862;18.430;2023-03-14T01:26:23;4.70;99.90
63771;DHT22;60282;43.862;18.430;2023-03-14T01:28:51;4.70;99.90
63771;DHT22;60282;43.862;18.430;2023-03-14T01:31:18;4.70;99.90
63771;DHT22;60282;43.862;18.430;2023-03-14T01:33:45;4.70;99.90
63771;DHT22;60282;43.862;18.430;2023-03-14T01:36:12;4.70;99.90
63771;DHT22;60282;43.862;18.430;2023-03-14T01:38:39;4.60;99.90
63771;DHT22;60282;43.862;18.430;2023-03-14T01:41:06;4.60;99.90
63771;DHT22;60282;43.862;18.430;2023-03-14T01:43:32;4.50;99.90
63771;DHT22;60282;43.862;18.430;2023-03-14T01:48:40;4.60;99.90
63771;DHT22;60282;43.862;18.430;2023-03-14T01:51:11;4.50;99.90
63771;DHT22;60282;43.862;18.430;2023-03-14T01:53:40;4.50;99.90
63771;DHT22;60282;43.862;18.430;2023-03-14T01:56:11;4.50;99.90
63771;DHT22;60282;43.862;18.430;2023-03-14T01:58:39;4.60;99.90
63771;DHT22;60282;43.862;18.430;2023-03-14T02:01:07;4.60;99.90
63771;DHT22;60282;43.862;18.430;2023-03-14T02:03:38;4.60;99.90
63771;DHT22;60282;43.862;18.430;2023-03-14T02:06:07;4.50;99.90
63771;DHT22;60282;43.862;18.430;2023-03-14T02:08:35;4.50;99.90
63771;DHT22;60282;43.862;18.430;2023-03-14T02:15:54;4.60;99.90
63771;DHT22;60282;43.862;18.430;2023-03-14T02:21:08;4.70;99.90
63771;DHT22;60282;43.862;18.430;2023-03-14T02:23:43;4.90;99.90
63771;DHT22;60282;43.862;18.430;2023-03-14T02:26:19;4.60;99.90
63771;DHT22;60282;43.862;18.430;2023-03-14T02:31:14;4.60;99.90
63771;DHT22;60282;43.862;18.430;2023-03-14T02:36:09;4.60;99.90
63771;DHT22;60282;43.862;18.430;2023-03-14T02:39:00;4.60;99.90
63771;DHT22;60282;43.862;18.430;2023-03-14T02:41:29;4.60;99.90
63771;DHT22;60282;43.862;18.430;2023-03-14T02:49:02;4.60;99.90
63771;DHT22;60282;43.862;18.430;2023-03-14T02:51:28;4.60;99.90
63771;DHT22;60282;43.862;18.430;2023-03-14T02:58:47;4.60;99.90
63771;DHT22;60282;43.862;18.430;2023-03-14T03:01:13;4.70;99.90
63771;DHT22;60282;43.862;18.430;2023-03-14T03:03:39;4.70;99.90
63771;DHT22;60282;43.862;18.430;2023-03-14T03:06:05;4.60;99.90
63771;DHT22;60282;43.862;18.430;2023-03-14T03:10:58;4.70;99.90
63771;DHT22;60282;43.862;18.430;2023-03-14T03:28:00;4.80;99.90
63771;DHT22;60282;43.862;18.430;2023-03-14T03:40:11;4.90;99.90
63771;DHT22;60282;43.862;18.430;2023-03-14T03:42:38;4.80;99.90
63771;DHT22;60282;43.862;18.430;2023-03-14T03:45:04;5.00;99.90
63771;DHT22;60282;43.862;18.430;2023-03-14T03:47:30;5.40;99.90
63771;DHT22;60282;43.862;18.430;2023-03-14T03:54:48;4.90;99.90
63771;DHT22;60282;43.862;18.430;2023-03-14T03:57:14;5.10;99.90
63771;DHT22;60282;43.862;18.430;2023-03-14T03:59:40;4.80;99.90
63771;DHT22;60282;43.862;18.430;2023-03-14T04:04:33;4.80;99.90
63771;DHT22;60282;43.862;18.430;2023-03-14T04:06:59;4.70;99.90
63771;DHT22;60282;43.862;18.430;2023-03-14T04:21:35;4.70;99.90
63771;DHT22;60282;43.862;18.430;2023-03-14T04:24:01;4.70;99.90
63771;DHT22;60282;43.862;18.430;2023-03-14T04:26:27;4.70;99.90
63771;DHT22;60282;43.862;18.430;2023-03-14T04:28:53;7.00;99.90
63771;DHT22;60282;43.862;18.430;2023-03-14T04:31:21;4.70;99.90
63771;DHT22;60282;43.862;18.430;2023-03-14T04:36:16;4.70;99.90
63771;DHT22;60282;43.862;18.430;2023-03-14T04:39:02;4.80;99.90
63771;DHT22;60282;43.862;18.430;2023-03-14T04:41:29;4.70;99.90
63771;DHT22;60282;43.862;18.430;2023-03-14T04:43:55;4.70;99.90
63771;DHT22;60282;43.862;18.430;2023-03-14T04:46:21;4.70;99.90
63771;DHT22;60282;43.862;18.430;2023-03-14T04:48:49;4.60;99.90
63771;DHT22;60282;43.862;18.430;2023-03-14T04:53:40;4.50;99.90
63771;DHT22;60282;43.862;18.430;2023-03-14T04:56:07;4.60;99.90
63771;DHT22;60282;43.862;18.430;2023-03-14T05:01:05;4.60;99.90
63771;DHT22;60282;43.862;18.430;2023-03-14T05:05:57;4.50;99.90
63771;DHT22;60282;43.862;18.430;2023-03-14T05:10:57;4.60;99.90
63771;DHT22;60282;43.862;18.430;2023-03-14T05:13:23;4.60;99.90
63771;DHT22;60282;43.862;18.430;2023-03-14T05:15:49;6.50;99.90
63771;DHT22;60282;43.862;18.430;2023-03-14T05:18:16;4.70;99.90
63771;DHT22;60282;43.862;18.430;2023-03-14T05:20:42;4.60;99.90
63771;DHT22;60282;43.862;18.430;2023-03-14T05:23:11;4.60;99.90
63771;DHT22;60282;43.862;18.430;2023-03-14T05:25:37;4.70;99.90
63771;DHT22;60282;43.862;18.430;2023-03-14T05:28:02;4.70;99.90
63771;DHT22;60282;43.862;18.430;2023-03-14T05:30:29;4.80;99.90
63771;DHT22;60282;43.862;18.430;2023-03-14T05:32:56;4.80;99.90
63771;DHT22;60282;43.862;18.430;2023-03-14T05:35:22;4.90;99.90
63771;DHT22;60282;43.862;18.430;2023-03-14T05:37:47;5.00;99.90
63771;DHT22;60282;43.862;18.430;2023-03-14T05:40:13;5.00;99.90
63771;DHT22;60282;43.862;18.430;2023-03-14T05:42:39;5.10;99.90
63771;DHT22;60282;43.862;18.430;2023-03-14T05:45:07;5.20;99.90
63771;DHT22;60282;43.862;18.430;2023-03-14T05:47:32;5.20;99.90
63771;DHT22;60282;43.862;18.430;2023-03-14T05:49:58;5.30;99.90
63771;DHT22;60282;43.862;18.430;2023-03-14T05:52:24;5.30;99.90
63771;DHT22;60282;43.862;18.430;2023-03-14T05:54:50;5.30;99.90
63771;DHT22;60282;43.862;18.430;2023-03-14T05:57:15;5.90;99.90
63771;DHT22;60282;43.862;18.430;2023-03-14T05:59:42;5.50;99.90
63771;DHT22;60282;43.862;18.430;2023-03-14T06:02:08;5.60;99.90
63771;DHT22;60282;43.862;18.430;2023-03-14T06:04:34;5.60;99.90
63771;DHT22;60282;43.862;18.430;2023-03-14T06:06:59;5.80;99.90
63771;DHT22;60282;43.862;18.430;2023-03-14T06:09:25;5.90;99.90
63771;DHT22;60282;43.862;18.430;2023-03-14T06:11:51;5.90;99.90
63771;DHT22;60282;43.862;18.430;2023-03-14T06:14:17;6.00;99.90
63771;DHT22;60282;43.862;18.430;2023-03-14T06:16:43;6.00;99.90
63771;DHT22;60282;43.862;18.430;2023-03-14T06:19:09;6.10;99.90
63771;DHT22;60282;43.862;18.430;2023-03-14T06:21:35;6.20;99.90
63771;DHT22;60282;43.862;18.430;2023-03-14T06:24:00;6.20;99.90
63771;DHT22;60282;43.862;18.430;2023-03-14T06:26:26;6.30;99.90
63771;DHT22;60282;43.862;18.430;2023-03-14T06:28:52;6.40;99.90
63771;DHT22;60282;43.862;18.430;2023-03-14T06:31:19;6.60;99.90
63771;DHT22;60282;43.862;18.430;2023-03-14T06:33:45;6.70;99.90
63771;DHT22;60282;43.862;18.430;2023-03-14T06:36:10;6.90;99.90
63771;DHT22;60282;43.862;18.430;2023-03-14T06:38:36;7.00;99.90
63771;DHT22;60282;43.862;18.430;2023-03-14T06:41:06;7.10;99.90
63771;DHT22;60282;43.862;18.430;2023-03-14T06:43:32;7.20;99.90
63771;DHT22;60282;43.862;18.430;2023-03-14T06:45:58;7.30;99.90
63771;DHT22;60282;43.862;18.430;2023-03-14T06:48:23;7.40;99.90
63771;DHT22;60282;43.862;18.430;2023-03-14T06:50:49;7.60;99.90
63771;DHT22;60282;43.862;18.430;2023-03-14T06:53:15;7.70;99.90
63771;DHT22;60282;43.862;18.430;2023-03-14T06:55:41;7.90;99.90
63771;DHT22;60282;43.862;18.430;2023-03-14T06:58:08;7.90;99.90
63771;DHT22;60282;43.862;18.430;2023-03-14T07:00:34;8.00;99.90
63771;DHT22;60282;43.862;18.430;2023-03-14T07:03:00;6.00;99.90
63771;DHT22;60282;43.862;18.430;2023-03-14T07:05:26;8.20;99.90
63771;DHT22;60282;43.862;18.430;2023-03-14T07:07:52;8.20;99.90
63771;DHT22;60282;43.862;18.430;2023-03-14T07:10:18;8.30;99.90
63771;DHT22;60282;43.862;18.430;2023-03-14T07:12:46;8.40;99.90
63771;DHT22;60282;43.862;18.430;2023-03-14T07:15:14;8.50;99.90
63771;DHT22;60282;43.862;18.430;2023-03-14T07:17:40;8.60;99.90
63771;DHT22;60282;43.862;18.430;2023-03-14T07:20:08;8.70;99.90
63771;DHT22;60282;43.862;18.430;2023-03-14T07:22:38;8.90;99.90
63771;DHT22;60282;43.862;18.430;2023-03-14T07:25:04;9.00;99.90
63771;DHT22;60282;43.862;18.430;2023-03-14T07:27:30;9.20;99.90
63771;DHT22;60282;43.862;18.430;2023-03-14T07:29:56;9.50;97.60
63771;DHT22;60282;43.862;18.430;2023-03-14T07:32:22;9.70;98.10
63771;DHT22;60282;43.862;18.430;2023-03-14T07:34:49;9.90;98.40
63771;DHT22;60282;43.862;18.430;2023-03-14T07:37:15;10.00;97.90
63771;DHT22;60282;43.862;18.430;2023-03-14T07:39:47;9.80;97.90
63771;DHT22;60282;43.862;18.430;2023-03-14T07:44:39;10.10;95.60
63771;DHT22;60282;43.862;18.430;2023-03-14T07:47:05;10.20;96.40
63771;DHT22;60282;43.862;18.430;2023-03-14T07:49:33;10.30;98.00
63771;DHT22;60282;43.862;18.430;2023-03-14T07:52:05;10.00;96.20
63771;DHT22;60282;43.862;18.430;2023-03-14T07:54:31;10.40;97.10
63771;DHT22;60282;43.862;18.430;2023-03-14T07:56:57;10.20;97.00
63771;DHT22;60282;43.862;18.430;2023-03-14T07:59:26;10.30;96.90
63771;DHT22;60282;43.862;18.430;2023-03-14T08:01:52;10.20;96.80
63771;DHT22;60282;43.862;18.430;2023-03-14T08:04:18;10.30;96.50
63771;DHT22;60282;43.862;18.430;2023-03-14T08:06:47;10.60;98.50
63771;DHT22;60282;43.862;18.430;2023-03-14T08:09:13;10.90;98.10
63771;DHT22;60282;43.862;18.430;2023-03-14T08:11:39;10.50;99.80
63771;DHT22;60282;43.862;18.430;2023-03-14T08:14:05;10.80;99.90
63771;DHT22;60282;43.862;18.430;2023-03-14T08:16:31;10.80;99.90
63771;DHT22;60282;43.862;18.430;2023-03-14T08:18:56;10.70;99.90
63771;DHT22;60282;43.862;18.430;2023-03-14T08:21:22;11.00;90.40
63771;DHT22;60282;43.862;18.430;2023-03-14T08:23:48;11.00;91.70
63771;DHT22;60282;43.862;18.430;2023-03-14T08:26:14;11.50;91.50
63771;DHT22;60282;43.862;18.430;2023-03-14T08:28:41;11.60;86.20
63771;DHT22;60282;43.862;18.430;2023-03-14T08:31:07;11.90;85.00
63771;DHT22;60282;43.862;18.430;2023-03-14T08:33:33;12.20;78.70
63771;DHT22;60282;43.862;18.430;2023-03-14T08:36:03;12.70;77.70
63771;DHT22;60282;43.862;18.430;2023-03-14T08:38:29;13.10;72.80
63771;DHT22;60282;43.862;18.430;2023-03-14T08:40:59;13.30;68.50
63771;DHT22;60282;43.862;18.430;2023-03-14T08:43:26;10.70;67.50
63771;DHT22;60282;43.862;18.430;2023-03-14T08:45:53;13.80;69.60
63771;DHT22;60282;43.862;18.430;2023-03-14T08:48:19;13.80;69.00
63771;DHT22;60282;43.862;18.430;2023-03-14T08:50:45;14.10;65.80
63771;DHT22;60282;43.862;18.430;2023-03-14T08:53:11;14.10;67.50
63771;DHT22;60282;43.862;18.430;2023-03-14T08:55:37;14.20;67.20
63771;DHT22;60282;43.862;18.430;2023-03-14T08:58:03;14.70;66.10
63771;DHT22;60282;43.862;18.430;2023-03-14T09:00:29;14.50;65.50
63771;DHT22;60282;43.862;18.430;2023-03-14T09:02:54;14.60;63.90
63771;DHT22;60282;43.862;18.430;2023-03-14T09:05:20;14.80;64.60
63771;DHT22;60282;43.862;18.430;2023-03-14T09:07:46;15.60;63.50
63771;DHT22;60282;43.862;18.430;2023-03-14T09:12:39;15.20;59.80
63771;DHT22;60282;43.862;18.430;2023-03-14T09:15:05;15.30;60.30
63771;DHT22;60282;43.862;18.430;2023-03-14T09:17:31;15.30;60.40
63771;DHT22;60282;43.862;18.430;2023-03-14T09:19:56;15.80;60.80
63771;DHT22;60282;43.862;18.430;2023-03-14T09:22:22;15.70;60.70
63771;DHT22;60282;43.862;18.430;2023-03-14T09:24:48;15.80;59.70
63771;DHT22;60282;43.862;18.430;2023-03-14T09:27:14;16.30;59.90
63771;DHT22;60282;43.862;18.430;2023-03-14T09:29:40;16.30;58.80
63771;DHT22;60282;43.862;18.430;2023-03-14T09:32:06;16.80;58.90
63771;DHT22;60282;43.862;18.430;2023-03-14T09:34:32;16.70;57.00
63771;DHT22;60282;43.862;18.430;2023-03-14T09:36:57;16.70;55.60
63771;DHT22;60282;43.862;18.430;2023-03-14T09:39:24;16.60;54.50
63771;DHT22;60282;43.862;18.430;2023-03-14T09:41:52;16.50;55.20
63771;DHT22;60282;43.862;18.430;2023-03-14T09:44:27;16.60;54.50
63771;DHT22;60282;43.862;18.430;2023-03-14T09:46:57;16.50;55.00
63771;DHT22;60282;43.862;18.430;2023-03-14T09:49:44;16.80;53.70
63771;DHT22;60282;43.862;18.430;2023-03-14T09:52:36;16.80;56.20
63771;DHT22;60282;43.862;18.430;2023-03-14T09:57:27;17.00;52.90
63771;DHT22;60282;43.862;18.430;2023-03-14T10:00:00;17.20;55.20
63771;DHT22;60282;43.862;18.430;2023-03-14T10:02:35;17.40;54.00
63771;DHT22;60282;43.862;18.430;2023-03-14T10:05:01;17.20;53.30
63771;DHT22;60282;43.862;18.430;2023-03-14T10:07:31;17.30;53.00
63771;DHT22;60282;43.862;18.430;2023-03-14T10:09:57;17.90;53.80
63771;DHT22;60282;43.862;18.430;2023-03-14T10:12:34;17.20;54.00
63771;DHT22;60282;43.862;18.430;2023-03-14T10:15:07;17.30;53.90
63771;DHT22;60282;43.862;18.430;2023-03-14T10:17:48;17.20;53.90
63771;DHT22;60282;43.862;18.430;2023-03-14T10:22:55;17.60;53.70
63771;DHT22;60282;43.862;18.430;2023-03-14T10:25:34;17.50;52.70
63771;DHT22;60282;43.862;18.430;2023-03-14T10:28:02;17.60;51.70
63771;DHT22;60282;43.862;18.430;2023-03-14T10:33:09;17.40;51.90
63771;DHT22;60282;43.862;18.430;2023-03-14T10:35:35;17.40;51.80
63771;DHT22;60282;43.862;18.430;2023-03-14T10:38:03;17.40;51.70
63771;DHT22;60282;43.862;18.430;2023-03-14T10:40:40;17.40;51.00
63771;DHT22;60282;43.862;18.430;2023-03-14T10:43:17;17.10;51.40
63771;DHT22;60282;43.862;18.430;2023-03-14T10:45:55;17.30;51.80
63771;DHT22;60282;43.862;18.430;2023-03-14T10:48:34;17.30;52.20
63771;DHT22;60282;43.862;18.430;2023-03-14T10:53:49;17.30;51.70
63771;DHT22;60282;43.862;18.430;2023-03-14T10:56:20;17.20;51.60
63771;DHT22;60282;43.862;18.430;2023-03-14T10:58:51;17.10;51.50
63771;DHT22;60282;43.862;18.430;2023-03-14T11:12:41;16.80;51.90
63771;DHT22;60282;43.862;18.430;2023-03-14T11:24:17;16.80;52.00
63771;DHT22;60282;43.862;18.430;2023-03-14T11:29:02;16.90;52.40
63771;DHT22;60282;43.862;18.430;2023-03-14T11:31:33;16.90;52.30
63771;DHT22;60282;43.862;18.430;2023-03-14T11:34:40;16.90;52.30
63771;DHT22;60282;43.862;18.430;2023-03-14T11:37:23;16.80;52.00
63771;DHT22;60282;43.862;18.430;2023-03-14T11:42:40;16.90;52.50
63771;DHT22;60282;43.862;18.430;2023-03-14T11:45:20;16.90;52.50
63771;DHT22;60282;43.862;18.430;2023-03-14T11:48:24;16.90;52.20
63771;DHT22;60282;43.862;18.430;2023-03-14T11:50:46;16.90;53.10
63771;DHT22;60282;43.862;18.430;2023-03-14T11:53:22;16.90;52.70
63771;DHT22;60282;43.862;18.430;2023-03-14T11:55:51;16.70;52.00
63771;DHT22;60282;43.862;18.430;2023-03-14T11:58:25;16.70;52.80
63771;DHT22;60282;43.862;18.430;2023-03-14T12:00:54;16.70;52.60
63771;DHT22;60282;43.862;18.430;2023-03-14T12:03:37;16.70;52.60
63771;DHT22;60282;43.862;18.430;2023-03-14T12:08:53;16.70;52.60
63771;DHT22;60282;43.862;18.430;2023-03-14T12:11:30;16.70;53.00
63771;DHT22;60282;43.862;18.430;2023-03-14T12:13:58;16.70;52.90
63771;DHT22;60282;43.862;18.430;2023-03-14T12:18:51;16.90;53.90
63771;DHT22;60282;43.862;18.430;2023-03-14T12:21:17;16.80;53.30
63771;DHT22;60282;43.862;18.430;2023-03-14T12:23:52;17.20;53.50
63771;DHT22;60282;43.862;18.430;2023-03-14T12:26:21;17.00;53.20
63771;DHT22;60282;43.862;18.430;2023-03-14T12:42:10;17.60;51.70
63771;DHT22;60282;43.862;18.430;2023-03-14T12:44:48;17.50;51.50
63771;DHT22;60282;43.862;18.430;2023-03-14T12:49:53;17.70;51.80
63771;DHT22;60282;43.862;18.430;2023-03-14T12:52:33;18.10;51.60
63771;DHT22;60282;43.862;18.430;2023-03-14T12:55:08;18.00;50.80
63771;DHT22;60282;43.862;18.430;2023-03-14T13:00:31;18.90;51.00
63771;DHT22;60282;43.862;18.430;2023-03-14T13:03:02;19.30;49.80
63771;DHT22;60282;43.862;18.430;2023-03-14T13:05:52;19.50;49.60
63771;DHT22;60282;43.862;18.430;2023-03-14T13:08:42;19.60;49.10
63771;DHT22;60282;43.862;18.430;2023-03-14T13:11:29;19.70;49.10
63771;DHT22;60282;43.862;18.430;2023-03-14T13:13:59;20.10;48.70
63771;DHT22;60282;43.862;18.430;2023-03-14T13:16:25;20.50;47.70
63771;DHT22;60282;43.862;18.430;2023-03-14T13:19:09;20.00;48.10
63771;DHT22;60282;43.862;18.430;2023-03-14T13:21:39;21.70;49.10
63771;DHT22;60282;43.862;18.430;2023-03-14T13:24:17;20.20;48.10
63771;DHT22;60282;43.862;18.430;2023-03-14T13:26:44;20.20;47.80
63771;DHT22;60282;43.862;18.430;2023-03-14T13:31:52;19.90;48.50
63771;DHT22;60282;43.862;18.430;2023-03-14T13:34:18;18.00;46.40
63771;DHT22;60282;43.862;18.430;2023-03-14T13:36:44;20.00;48.00
63771;DHT22;60282;43.862;18.430;2023-03-14T13:39:13;20.20;48.00
63771;DHT22;60282;43.862;18.430;2023-03-14T13:41:43;20.40;47.30
63771;DHT22;60282;43.862;18.430;2023-03-14T13:44:18;20.50;46.40
63771;DHT22;60282;43.862;18.430;2023-03-14T13:46:46;20.50;46.90
63771;DHT22;60282;43.862;18.430;2023-03-14T13:49:23;20.80;47.20
63771;DHT22;60282;43.862;18.430;2023-03-14T13:51:50;21.60;47.80
63771;DHT22;60282;43.862;18.430;2023-03-14T13:54:18;21.50;45.70
63771;DHT22;60282;43.862;18.430;2023-03-14T13:56:45;21.30;46.20
63771;DHT22;60282;43.862;18.430;2023-03-14T14:01:49;21.90;46.00
63771;DHT22;60282;43.862;18.430;2023-03-14T14:04:16;22.20;45.40
63771;DHT22;60282;43.862;18.430;2023-03-14T14:06:49;22.40;45.50
63771;DHT22;60282;43.862;18.430;2023-03-14T14:09:28;22.40;45.50
63771;DHT22;60282;43.862;18.430;2023-03-14T14:12:06;22.30;45.40
63771;DHT22;60282;43.862;18.430;2023-03-14T14:17:43;21.70;44.50
63771;DHT22;60282;43.862;18.430;2023-03-14T14:20:22;21.30;46.20
63771;DHT22;60282;43.862;18.430;2023-03-14T14:22:49;21.40;45.80
63771;DHT22;60282;43.862;18.430;2023-03-14T14:25:16;21.00;45.70
63771;DHT22;60282;43.862;18.430;2023-03-14T14:27:46;21.10;45.80
63771;DHT22;60282;43.862;18.430;2023-03-14T14:32:45;21.30;45.50
63771;DHT22;60282;43.862;18.430;2023-03-14T14:37:48;21.70;44.50
63771;DHT22;60282;43.862;18.430;2023-03-14T14:40:29;21.70;44.80
63771;DHT22;60282;43.862;18.430;2023-03-14T14:43:02;21.20;45.10
63771;DHT22;60282;43.862;18.430;2023-03-14T14:45:28;21.30;45.20
63771;DHT22;60282;43.862;18.430;2023-03-14T14:50:37;22.00;45.20
63771;DHT22;60282;43.862;18.430;2023-03-14T14:53:29;21.50;44.70
63771;DHT22;60282;43.862;18.430;2023-03-14T14:56:04;21.40;44.80
63771;DHT22;60282;43.862;18.430;2023-03-14T14:58:39;21.80;44.70
63771;DHT22;60282;43.862;18.430;2023-03-14T15:01:18;21.80;44.30
63771;DHT22;60282;43.862;18.430;2023-03-14T15:03:47;21.50;44.70
63771;DHT22;60282;43.862;18.430;2023-03-14T15:06:15;21.30;44.90
63771;DHT22;60282;43.862;18.430;2023-03-14T15:08:46;21.40;45.70
63771;DHT22;60282;43.862;18.430;2023-03-14T15:11:23;20.90;44.60
63771;DHT22;60282;43.862;18.430;2023-03-14T15:13:50;20.80;45.30
63771;DHT22;60282;43.862;18.430;2023-03-14T15:16:19;19.70;45.20
63771;DHT22;60282;43.862;18.430;2023-03-14T15:18:54;19.60;45.80
63771;DHT22;60282;43.862;18.430;2023-03-14T15:21:23;19.00;46.60
63771;DHT22;60282;43.862;18.430;2023-03-14T15:23:49;18.70;46.70
63771;DHT22;60282;43.862;18.430;2023-03-14T15:26:24;18.40;46.90
63771;DHT22;60282;43.862;18.430;2023-03-14T15:28:50;18.80;48.40
63771;DHT22;60282;43.862;18.430;2023-03-14T15:31:17;17.50;48.50
63771;DHT22;60282;43.862;18.430;2023-03-14T15:33:44;17.40;49.00
63771;DHT22;60282;43.862;18.430;2023-03-14T15:36:19;17.70;49.10
63771;DHT22;60282;43.862;18.430;2023-03-14T15:38:44;15.60;47.60
63771;DHT22;60282;43.862;18.430;2023-03-14T15:43:36;18.80;47.20
63771;DHT22;60282;43.862;18.430;2023-03-14T15:46:02;19.30;48.40
63771;DHT22;60282;43.862;18.430;2023-03-14T15:48:28;18.90;46.60
63771;DHT22;60282;43.862;18.430;2023-03-14T15:50:54;20.70;47.20
63771;DHT22;60282;43.862;18.430;2023-03-14T15:53:20;20.00;46.70
63771;DHT22;60282;43.862;18.430;2023-03-14T15:55:45;19.90;45.60
63771;DHT22;60282;43.862;18.430;2023-03-14T15:58:18;22.50;46.60
63771;DHT22;60282;43.862;18.430;2023-03-14T16:00:44;20.10;45.00
63771;DHT22;60282;43.862;18.430;2023-03-14T16:03:10;20.10;45.00
63771;DHT22;60282;43.862;18.430;2023-03-14T16:05:38;20.20;44.60
63771;DHT22;60282;43.862;18.430;2023-03-14T16:08:04;17.50;42.50
63771;DHT22;60282;43.862;18.430;2023-03-14T16:12:57;20.70;43.40
63771;DHT22;60282;43.862;18.430;2023-03-14T16:15:23;19.90;43.80
63771;DHT22;60282;43.862;18.430;2023-03-14T16:17:55;19.30;43.70
63771;DHT22;60282;43.862;18.430;2023-03-14T16:20:21;19.20;44.30
63771;DHT22;60282;43.862;18.430;2023-03-14T16:22:47;18.60;44.50
63771;DHT22;60282;43.862;18.430;2023-03-14T16:25:14;18.50;45.00
63771;DHT22;60282;43.862;18.430;2023-03-14T16:27:40;18.20;46.80
63771;DHT22;60282;43.862;18.430;2023-03-14T16:30:08;17.70;46.20
63771;DHT22;60282;43.862;18.430;2023-03-14T16:32:35;17.20;46.50
63771;DHT22;60282;43.862;18.430;2023-03-14T16:35:01;16.90;46.70
63771;DHT22;60282;43.862;18.430;2023-03-14T16:37:27;16.60;47.20
63771;DHT22;60282;43.862;18.430;2023-03-14T16:39:53;16.30;47.20
63771;DHT22;60282;43.862;18.430;2023-03-14T16:42:20;16.10;47.90
63771;DHT22;60282;43.862;18.430;2023-03-14T16:44:46;15.80;47.70
63771;DHT22;60282;43.862;18.430;2023-03-14T16:47:12;15.80;48.70
63771;DHT22;60282;43.862;18.430;2023-03-14T16:49:38;15.60;48.90
63771;DHT22;60282;43.862;18.430;2023-03-14T16:52:04;15.40;48.90
63771;DHT22;60282;43.862;18.430;2023-03-14T16:54:31;15.40;48.50
63771;DHT22;60282;43.862;18.430;2023-03-14T16:56:58;15.20;48.90
63771;DHT22;60282;43.862;18.430;2023-03-14T16:59:23;15.10;49.20
63771;DHT22;60282;43.862;18.430;2023-03-14T17:01:51;14.90;49.80
63771;DHT22;60282;43.862;18.430;2023-03-14T17:06:43;14.90;48.50
63771;DHT22;60282;43.862;18.430;2023-03-14T17:09:10;14.60;51.00
63771;DHT22;60282;43.862;18.430;2023-03-14T17:11:35;15.10;49.70
63771;DHT22;60282;43.862;18.430;2023-03-14T17:14:02;14.60;50.10
63771;DHT22;60282;43.862;18.430;2023-03-14T17:16:28;14.70;49.60
63771;DHT22;60282;43.862;18.430;2023-03-14T17:18:55;14.70;49.00
63771;DHT22;60282;43.862;18.430;2023-03-14T17:21:21;14.60;48.90
63771;DHT22;60282;43.862;18.430;2023-03-14T17:23:47;14.70;49.80
63771;DHT22;60282;43.862;18.430;2023-03-14T17:26:13;14.50;50.10
63771;DHT22;60282;43.862;18.430;2023-03-14T17:28:40;14.40;50.60
63771;DHT22;60282;43.862;18.430;2023-03-14T17:31:16;14.40;52.20
63771;DHT22;60282;43.862;18.430;2023-03-14T17:33:43;14.30;50.50
63771;DHT22;60282;43.862;18.430;2023-03-14T17:36:10;14.30;50.10
63771;DHT22;60282;43.862;18.430;2023-03-14T17:38:38;14.30;50.30
63771;DHT22;60282;43.862;18.430;2023-03-14T17:41:07;14.20;51.40
63771;DHT22;60282;43.862;18.430;2023-03-14T17:43:34;14.20;51.20
63771;DHT22;60282;43.862;18.430;2023-03-14T17:46:04;14.10;51.50
63771;DHT22;60282;43.862;18.430;2023-03-14T17:48:43;14.10;51.30
63771;DHT22;60282;43.862;18.430;2023-03-14T17:51:09;14.00;51.20
63771;DHT22;60282;43.862;18.430;2023-03-14T17:53:36;14.60;52.60
63771;DHT22;60282;43.862;18.430;2023-03-14T17:56:02;13.90;53.10
63771;DHT22;60282;43.862;18.430;2023-03-14T17:58:28;13.80;51.50
63771;DHT22;60282;43.862;18.430;2023-03-14T18:00:54;13.80;52.10
63771;DHT22;60282;43.862;18.430;2023-03-14T18:03:21;13.80;52.50
63771;DHT22;60282;43.862;18.430;2023-03-14T18:05:47;13.70;51.50
63771;DHT22;60282;43.862;18.430;2023-03-14T18:08:14;13.80;52.00
63771;DHT22;60282;43.862;18.430;2023-03-14T18:10:40;13.70;52.00
63771;DHT22;60282;43.862;18.430;2023-03-14T18:13:07;13.70;52.30
63771;DHT22;60282;43.862;18.430;2023-03-14T18:15:33;13.80;51.60
63771;DHT22;60282;43.862;18.430;2023-03-14T18:17:59;13.80;51.10
63771;DHT22;60282;43.862;18.430;2023-03-14T18:20:28;13.80;51.50
63771;DHT22;60282;43.862;18.430;2023-03-14T18:22:55;13.70;51.10
63771;DHT22;60282;43.862;18.430;2023-03-14T18:25:21;13.70;51.60
63771;DHT22;60282;43.862;18.430;2023-03-14T18:27:47;13.60;52.10
63771;DHT22;60282;43.862;18.430;2023-03-14T18:30:13;13.60;51.80
63771;DHT22;60282;43.862;18.430;2023-03-14T18:32:40;13.30;51.20
63771;DHT22;60282;43.862;18.430;2023-03-14T18:35:06;13.50;52.30
63771;DHT22;60282;43.862;18.430;2023-03-14T18:37:32;13.50;52.40
63771;DHT22;60282;43.862;18.430;2023-03-14T18:42:23;13.50;50.90
63771;DHT22;60282;43.862;18.430;2023-03-14T18:44:49;13.50;52.20
63771;DHT22;60282;43.862;18.430;2023-03-14T18:47:15;13.50;51.70